createdAt,value
2022-08-26T00:01:04.411Z,64.51
2022-08-26T00:03:32.612Z,64.64
2022-08-26T00:06:00.832Z,64.55
2022-08-26T00:08:29.376Z,64.74
2022-08-26T00:10:57.870Z,64.55
2022-08-26T00:13:29.307Z,64.52
2022-08-26T00:15:58.045Z,64.86
2022-08-26T00:18:27.097Z,64.89
2022-08-26T00:20:57.019Z,64.75
2022-08-26T00:23:25.766Z,64.83
2022-08-26T00:25:57.839Z,64.81
2022-08-26T00:28:27.114Z,64.78
2022-08-26T00:30:55.438Z,64.80
2022-08-26T00:33:24.182Z,64.77
2022-08-26T00:35:52.401Z,64.59
2022-08-26T00:38:22.251Z,64.63
2022-08-26T00:40:55.680Z,64.48
2022-08-26T00:43:26.526Z,64.50
2022-08-26T00:46:31.684Z,64.53
2022-08-26T00:49:11.828Z,64.49
2022-08-26T00:51:51.379Z,64.58
2022-08-26T00:54:26.927Z,64.48
2022-08-26T00:57:08.761Z,64.21
2022-08-26T00:59:49.353Z,63.81
2022-08-26T01:02:20.753Z,63.70
2022-08-26T01:04:59.085Z,63.62
2022-08-26T01:07:31.339Z,63.89
2022-08-26T01:10:03.104Z,63.95
2022-08-26T01:12:40.161Z,63.96
2022-08-26T01:15:14.221Z,63.79
2022-08-26T01:17:42.620Z,63.62
2022-08-26T01:20:30.420Z,63.62
2022-08-26T01:23:05.344Z,63.75
2022-08-26T01:25:39.512Z,63.78
2022-08-26T01:28:14.340Z,64.04
2022-08-26T01:30:45.172Z,64.19
2022-08-26T01:33:19.299Z,64.38
2022-08-26T01:35:48.160Z,64.31
2022-08-26T01:38:18.376Z,64.70
2022-08-26T01:40:47.140Z,64.62
2022-08-26T01:43:21.533Z,64.83
2022-08-26T01:45:51.849Z,65.05
2022-08-26T01:48:25.582Z,65.02
2022-08-26T01:50:54.335Z,65.57
2022-08-26T01:53:24.544Z,65.61
2022-08-26T01:56:02.888Z,65.72
2022-08-26T01:58:47.218Z,65.77
2022-08-26T02:01:16.440Z,66.18
2022-08-26T02:04:08.287Z,66.31
2022-08-26T02:06:38.959Z,66.33
2022-08-26T02:09:08.952Z,66.95
2022-08-26T02:11:38.374Z,67.02
2022-08-26T02:14:17.149Z,67.21
2022-08-26T02:16:50.447Z,67.42
2022-08-26T02:19:29.495Z,67.52
2022-08-26T02:22:03.300Z,67.51
2022-08-26T02:24:57.996Z,67.49
2022-08-26T02:27:33.918Z,67.32
2022-08-26T02:30:17.114Z,67.52
2022-08-26T02:32:46.503Z,67.46
2022-08-26T02:35:20.551Z,67.42
2022-08-26T02:37:51.017Z,67.28
2022-08-26T02:40:28.276Z,67.21
2022-08-26T02:42:57.552Z,67.17
2022-08-26T02:45:28.597Z,67.20
2022-08-26T02:47:58.600Z,67.34
2022-08-26T02:50:28.948Z,67.51
2022-08-26T02:52:57.139Z,67.44
2022-08-26T02:55:26.393Z,67.47
2022-08-26T02:57:54.645Z,67.79
2022-08-26T03:00:23.829Z,67.70
2022-08-26T03:02:52.129Z,67.79
2022-08-26T03:05:22.156Z,67.69
2022-08-26T03:07:53.009Z,67.43
2022-08-26T03:10:22.605Z,67.50
2022-08-26T03:12:50.846Z,67.61
2022-08-26T03:15:20.920Z,67.69
2022-08-26T03:17:50.363Z,67.80
2022-08-26T03:20:19.024Z,67.88
2022-08-26T03:22:47.868Z,67.82
2022-08-26T03:25:18.313Z,68.43
2022-08-26T03:27:46.851Z,68.64
2022-08-26T03:30:34.718Z,68.70
2022-08-26T03:33:03.676Z,69.00
2022-08-26T03:35:33.964Z,68.89
2022-08-26T03:38:03.452Z,68.99
2022-08-26T03:40:33.911Z,68.94
2022-08-26T03:43:04.618Z,69.16
2022-08-26T03:45:34.017Z,69.20
2022-08-26T03:48:04.531Z,69.13
2022-08-26T03:50:35.843Z,69.10
2022-08-26T03:53:04.509Z,69.43
2022-08-26T03:55:35.684Z,69.58
2022-08-26T03:58:03.904Z,69.55
2022-08-26T04:00:32.512Z,69.91
2022-08-26T04:03:02.754Z,69.83
2022-08-26T04:05:31.420Z,69.90
2022-08-26T04:08:00.072Z,70.01
2022-08-26T04:10:29.528Z,69.90
2022-08-26T04:12:59.552Z,69.86
2022-08-26T04:15:28.167Z,69.66
2022-08-26T04:17:57.245Z,69.41
2022-08-26T04:20:27.496Z,69.12
2022-08-26T04:22:56.511Z,68.96
2022-08-26T04:25:25.392Z,68.79
2022-08-26T04:27:53.988Z,68.60
2022-08-26T04:30:22.965Z,68.31
2022-08-26T04:32:52.576Z,68.10
2022-08-26T04:35:25.781Z,67.89
2022-08-26T04:37:54.497Z,67.67
2022-08-26T04:40:24.080Z,67.24
2022-08-26T04:42:54.958Z,66.94
2022-08-26T04:45:24.643Z,66.78
2022-08-26T04:47:56.498Z,66.52
2022-08-26T04:50:26.616Z,66.15
2022-08-26T04:52:55.498Z,65.47
2022-08-26T04:55:38.221Z,65.30
2022-08-26T04:58:11.049Z,64.69
2022-08-26T05:00:39.317Z,64.23
2022-08-26T05:03:10.567Z,63.03
2022-08-26T05:05:43.923Z,62.84
2022-08-26T05:08:14.972Z,62.12
2022-08-26T05:10:48.499Z,61.84
2022-08-26T05:13:20.623Z,61.36
2022-08-26T05:15:49.464Z,60.05
2022-08-26T05:18:21.369Z,59.80
2022-08-26T05:20:54.842Z,59.15
2022-08-26T05:23:24.783Z,58.70
2022-08-26T05:25:59.149Z,57.90
2022-08-26T05:28:29.998Z,57.72
2022-08-26T05:30:58.238Z,57.63
2022-08-26T05:33:26.687Z,57.62
2022-08-26T05:35:55.151Z,57.54
2022-08-26T05:38:23.752Z,57.18
2022-08-26T05:40:53.308Z,56.60
2022-08-26T05:43:21.652Z,56.00
2022-08-26T05:45:50.609Z,56.18
2022-08-26T05:48:22.704Z,55.90
2022-08-26T05:50:53.498Z,55.62
2022-08-26T05:53:25.926Z,54.61
2022-08-26T05:55:56.271Z,54.13
2022-08-26T05:58:27.182Z,53.51
2022-08-26T06:01:04.652Z,54.13
2022-08-26T06:03:36.077Z,53.81
2022-08-26T06:06:08.300Z,53.86
2022-08-26T06:08:37.790Z,53.80
2022-08-26T06:11:12.729Z,53.27
2022-08-26T06:13:47.228Z,53.58
2022-08-26T06:16:20.422Z,52.71
2022-08-26T06:18:50.709Z,53.07
2022-08-26T06:21:28.852Z,52.67
2022-08-26T06:24:19.533Z,51.86
2022-08-26T06:26:56.124Z,51.56
2022-08-26T06:29:28.001Z,51.83
2022-08-26T06:31:58.150Z,51.07
2022-08-26T06:34:30.638Z,50.62
2022-08-26T06:37:02.776Z,50.76
2022-08-26T06:39:32.113Z,50.77
2022-08-26T06:42:02.709Z,51.13
2022-08-26T06:44:35.121Z,50.84
2022-08-26T06:47:03.702Z,50.64
2022-08-26T06:49:31.897Z,50.28
2022-08-26T06:52:00.114Z,49.70
2022-08-26T06:54:31.815Z,50.05
2022-08-26T06:57:01.313Z,49.58
2022-08-26T06:59:31.347Z,49.35
2022-08-26T07:01:59.721Z,48.83
2022-08-26T07:04:28.916Z,48.32
2022-08-26T07:06:57.439Z,48.59
2022-08-26T07:09:30.396Z,48.16
2022-08-26T07:11:59.505Z,47.85
2022-08-26T07:14:27.933Z,48.24
2022-08-26T07:16:56.160Z,47.98
2022-08-26T07:19:30.146Z,48.03
2022-08-26T07:22:04.063Z,47.59
2022-08-26T07:24:35.867Z,47.00
2022-08-26T07:27:08.636Z,46.55
2022-08-26T07:29:39.583Z,46.73
2022-08-26T07:32:09.859Z,46.53
2022-08-26T07:34:39.410Z,46.33
2022-08-26T07:37:10.232Z,46.37
2022-08-26T07:39:41.624Z,46.01
2022-08-26T07:42:14.823Z,46.33
2022-08-26T07:44:45.315Z,46.11
2022-08-26T07:47:25.689Z,45.79
2022-08-26T07:49:57.911Z,45.45
2022-08-26T07:52:29.343Z,45.00
2022-08-26T07:55:00.964Z,44.87
2022-08-26T07:57:29.680Z,45.22
2022-08-26T07:59:59.061Z,45.11
2022-08-26T08:02:29.014Z,45.01
2022-08-26T08:04:58.546Z,44.64
2022-08-26T08:07:44.782Z,44.42
2022-08-26T08:10:22.548Z,43.97
2022-08-26T08:12:54.052Z,44.08
2022-08-26T08:15:27.903Z,43.71
2022-08-26T08:18:00.227Z,43.66
2022-08-26T08:20:30.069Z,43.88
2022-08-26T08:22:58.537Z,43.00
2022-08-26T08:25:27.112Z,42.54
2022-08-26T08:27:55.318Z,42.73
2022-08-26T08:30:25.346Z,42.56
2022-08-26T08:32:54.173Z,42.17
2022-08-26T08:35:24.150Z,42.17
2022-08-26T08:37:57.240Z,41.60
2022-08-26T08:40:27.166Z,41.46
2022-08-26T08:43:37.657Z,41.49
2022-08-26T08:46:12.971Z,41.86
2022-08-26T08:48:46.677Z,40.88
2022-08-26T08:51:48.426Z,40.54
2022-08-26T08:54:16.741Z,38.50
2022-08-26T08:56:55.532Z,39.38
2022-08-26T08:59:39.941Z,39.39
2022-08-26T09:02:47.974Z,39.56
2022-08-26T09:05:48.784Z,39.05
2022-08-26T09:08:27.457Z,38.21
2022-08-26T09:11:00.948Z,38.55
2022-08-26T09:13:31.700Z,37.85
2022-08-26T09:16:00.058Z,38.85
2022-08-26T09:19:40.501Z,38.30
2022-08-26T09:22:09.924Z,38.18
2022-08-26T09:24:41.999Z,38.08
2022-08-26T09:27:50.763Z,37.13
2022-08-26T09:30:33.197Z,36.43
2022-08-26T09:33:11.287Z,37.47
2022-08-26T09:35:45.678Z,37.24
2022-08-26T09:38:34.269Z,37.16
2022-08-26T09:41:08.456Z,37.27
2022-08-26T09:43:37.625Z,37.61
2022-08-26T09:46:19.521Z,38.08
2022-08-26T09:48:48.516Z,37.73
2022-08-26T09:51:24.877Z,37.87
2022-08-26T09:53:57.752Z,37.60
2022-08-26T09:56:35.947Z,36.95
2022-08-26T09:59:11.126Z,36.42
2022-08-26T10:01:44.950Z,36.87
2022-08-26T10:04:26.727Z,37.54
2022-08-26T10:06:59.314Z,36.97
2022-08-26T10:09:29.919Z,36.28
2022-08-26T10:12:04.642Z,35.42
2022-08-26T10:14:39.932Z,34.78
2022-08-26T10:17:30.775Z,34.29
2022-08-26T10:20:23.379Z,34.33
2022-08-26T10:23:26.048Z,34.47
2022-08-26T10:26:07.783Z,35.01
2022-08-26T10:28:50.016Z,34.95
2022-08-26T10:31:52.018Z,34.83
2022-08-26T10:34:21.190Z,35.14
2022-08-26T10:37:15.741Z,35.44
2022-08-26T10:39:53.074Z,35.31
2022-08-26T10:42:42.924Z,34.79
2022-08-26T10:45:16.857Z,34.96
2022-08-26T10:47:59.916Z,35.65
2022-08-26T10:50:39.351Z,35.38
2022-08-26T10:53:27.011Z,35.20
2022-08-26T10:56:15.670Z,34.96
2022-08-26T10:59:10.224Z,35.26
2022-08-26T11:02:25.359Z,35.19
2022-08-26T11:05:06.573Z,34.90
2022-08-26T11:07:52.598Z,34.79
2022-08-26T11:10:23.051Z,34.75
2022-08-26T11:13:01.448Z,34.64
2022-08-26T11:15:29.680Z,34.17
2022-08-26T11:18:11.017Z,33.24
2022-08-26T11:20:41.916Z,32.85
2022-08-26T11:23:13.360Z,33.01
2022-08-26T11:25:57.138Z,32.77
2022-08-26T11:28:39.852Z,33.26
2022-08-26T11:31:38.753Z,33.61
2022-08-26T11:34:13.537Z,33.26
2022-08-26T11:36:47.826Z,32.96
2022-08-26T11:39:54.070Z,33.03
2022-08-26T11:42:45.980Z,33.37
2022-08-26T11:45:24.682Z,33.71
2022-08-26T11:47:55.024Z,33.76
2022-08-26T11:50:28.102Z,33.64
2022-08-26T11:53:06.330Z,33.80
2022-08-26T11:55:43.428Z,33.64
2022-08-26T11:58:15.042Z,32.36
2022-08-26T12:00:46.236Z,32.30
2022-08-26T12:03:36.081Z,32.09
2022-08-26T12:06:38.980Z,32.11
2022-08-26T12:09:26.432Z,32.53
2022-08-26T12:12:12.344Z,32.05
2022-08-26T12:14:41.817Z,32.13
2022-08-26T12:17:19.384Z,31.36
2022-08-26T12:19:50.731Z,31.03
2022-08-26T12:22:24.836Z,30.81
2022-08-26T12:24:59.995Z,30.62
2022-08-26T12:27:41.675Z,30.44
2022-08-26T12:30:17.999Z,30.40
2022-08-26T12:33:03.703Z,30.17
2022-08-26T12:35:56.431Z,30.24
2022-08-26T12:38:27.537Z,30.66
2022-08-26T12:40:57.081Z,30.33
2022-08-26T12:43:47.474Z,29.99
2022-08-26T12:46:27.701Z,29.90
2022-08-26T12:49:01.103Z,29.45
2022-08-26T12:51:32.961Z,29.71
2022-08-26T12:54:06.784Z,29.94
2022-08-26T12:56:39.521Z,29.80
2022-08-26T12:59:19.913Z,29.94
2022-08-26T13:01:49.510Z,29.88
2022-08-26T13:04:43.960Z,29.21
2022-08-26T13:07:26.437Z,29.50
2022-08-26T13:09:58.481Z,29.78
2022-08-26T13:12:32.817Z,29.85
2022-08-26T13:15:04.911Z,29.89
2022-08-26T13:17:35.954Z,29.89
2022-08-26T13:20:04.989Z,29.88
2022-08-26T13:22:34.283Z,29.84
2022-08-26T13:25:02.537Z,29.53
2022-08-26T13:27:30.745Z,29.22
2022-08-26T13:29:59.890Z,29.08
2022-08-26T13:32:28.982Z,28.93
2022-08-26T13:34:57.785Z,28.54
2022-08-26T13:37:34.114Z,28.51
2022-08-26T13:40:07.989Z,28.64
2022-08-26T13:42:36.268Z,28.87
2022-08-26T13:45:05.321Z,28.72
2022-08-26T13:47:33.558Z,28.58
2022-08-26T13:50:01.932Z,28.85
2022-08-26T13:52:31.206Z,28.94
2022-08-26T13:55:00.830Z,29.07
2022-08-26T13:57:30.484Z,28.67
2022-08-26T13:59:59.658Z,28.18
2022-08-26T14:02:28.695Z,28.49
2022-08-26T14:04:56.905Z,28.29
2022-08-26T14:07:25.167Z,28.78
2022-08-26T14:09:53.465Z,28.83
2022-08-26T14:12:21.708Z,28.84
2022-08-26T14:14:50.367Z,28.35
2022-08-26T14:17:24.515Z,27.93
2022-08-26T14:19:53.901Z,27.73
2022-08-26T14:22:22.652Z,27.67
2022-08-26T14:24:51.101Z,28.04
2022-08-26T14:27:19.450Z,27.69
2022-08-26T14:29:48.019Z,27.76
2022-08-26T14:32:26.193Z,27.95
2022-08-26T14:34:55.145Z,27.93
2022-08-26T14:37:24.067Z,27.89
2022-08-26T14:39:52.549Z,27.80
2022-08-26T14:42:31.350Z,27.84
2022-08-26T14:45:02.847Z,27.76
2022-08-26T14:47:31.138Z,27.70
2022-08-26T14:49:59.329Z,27.58
2022-08-26T14:52:27.815Z,27.70
2022-08-26T14:54:56.018Z,27.97
2022-08-26T14:57:24.227Z,27.83
2022-08-26T14:59:52.429Z,27.48
2022-08-26T15:02:33.809Z,27.26
2022-08-26T15:05:04.149Z,27.76
2022-08-26T15:07:32.718Z,27.88
2022-08-26T15:10:01.561Z,27.79
2022-08-26T15:12:29.833Z,27.68
2022-08-26T15:14:58.041Z,27.36
2022-08-26T15:17:26.674Z,27.34
2022-08-26T15:19:55.222Z,27.27
2022-08-26T15:22:23.883Z,27.12
2022-08-26T15:24:54.758Z,27.40
2022-08-26T15:27:22.989Z,27.69
2022-08-26T15:29:51.868Z,27.77
2022-08-26T15:32:20.813Z,27.69
2022-08-26T15:34:50.848Z,27.64
2022-08-26T15:37:19.326Z,27.53
2022-08-26T15:39:47.964Z,27.79
2022-08-26T15:42:16.174Z,27.96
2022-08-26T15:44:45.694Z,28.12
2022-08-26T15:47:13.870Z,27.86
2022-08-26T15:49:42.143Z,28.03
2022-08-26T15:52:10.816Z,28.37
2022-08-26T15:54:39.721Z,28.46
2022-08-26T15:57:11.448Z,28.53
2022-08-26T15:59:40.799Z,28.01
2022-08-26T16:02:09.679Z,28.51
2022-08-26T16:04:38.045Z,28.73
2022-08-26T16:07:06.270Z,28.83
2022-08-26T16:09:34.676Z,28.60
2022-08-26T16:12:03.375Z,28.84
2022-08-26T16:14:31.683Z,28.93
2022-08-26T16:16:59.886Z,28.77
2022-08-26T16:19:28.065Z,28.66
2022-08-26T16:21:56.287Z,28.95
2022-08-26T16:24:29.724Z,29.19
2022-08-26T16:26:58.921Z,29.30
2022-08-26T16:29:27.514Z,29.62
2022-08-26T16:31:55.798Z,29.77
2022-08-26T16:34:24.577Z,29.91
2022-08-26T16:36:53.072Z,29.93
2022-08-26T16:39:21.428Z,30.12
2022-08-26T16:41:49.581Z,30.09
2022-08-26T16:44:18.225Z,30.44
2022-08-26T16:46:46.551Z,30.42
2022-08-26T16:49:15.226Z,30.81
2022-08-26T16:51:43.662Z,30.74
2022-08-26T16:54:11.880Z,30.94
2022-08-26T16:56:40.365Z,30.97
2022-08-26T16:59:11.615Z,31.12
2022-08-26T17:01:40.195Z,31.43
2022-08-26T17:04:08.768Z,31.65
2022-08-26T17:06:37.065Z,32.22
2022-08-26T17:09:09.003Z,32.80
2022-08-26T17:11:37.652Z,33.37
2022-08-26T17:14:06.600Z,33.67
2022-08-26T17:16:34.908Z,34.31
2022-08-26T17:19:05.005Z,34.67
2022-08-26T17:21:36.611Z,35.65
2022-08-26T17:24:06.911Z,36.26
2022-08-26T17:26:37.123Z,36.47
2022-08-26T17:29:07.426Z,36.98
2022-08-26T17:31:35.696Z,37.56
2022-08-26T17:34:05.193Z,38.16
2022-08-26T17:36:33.543Z,38.22
2022-08-26T17:39:02.105Z,38.59
2022-08-26T17:41:30.342Z,39.07
2022-08-26T17:43:58.607Z,39.62
2022-08-26T17:46:26.974Z,39.84
2022-08-26T17:48:55.270Z,40.11
2022-08-26T17:51:24.015Z,40.27
2022-08-26T17:53:52.555Z,40.37
2022-08-26T17:56:25.551Z,40.58
2022-08-26T17:58:57.731Z,40.97
2022-08-26T18:01:31.143Z,41.06
2022-08-26T18:04:00.876Z,41.44
2022-08-26T18:06:30.845Z,41.50
2022-08-26T18:09:00.746Z,41.70
2022-08-26T18:11:32.151Z,41.97
2022-08-26T18:14:00.593Z,42.18
2022-08-26T18:16:31.740Z,42.24
2022-08-26T18:19:01.135Z,42.43
2022-08-26T18:21:29.475Z,42.56
2022-08-26T18:23:57.702Z,42.65
2022-08-26T18:26:31.398Z,43.08
2022-08-26T18:29:00.900Z,43.33
2022-08-26T18:31:30.490Z,43.77
2022-08-26T18:34:01.223Z,43.74
2022-08-26T18:36:36.589Z,43.96
2022-08-26T18:39:08.357Z,44.09
2022-08-26T18:41:46.232Z,44.18
2022-08-26T18:44:17.981Z,44.43
2022-08-26T18:46:47.148Z,44.60
2022-08-26T18:49:18.150Z,44.88
2022-08-26T18:51:47.869Z,45.05
2022-08-26T18:54:17.272Z,45.33
2022-08-26T18:56:45.938Z,45.27
2022-08-26T18:59:14.882Z,45.47
2022-08-26T19:01:45.334Z,45.66
2022-08-26T19:04:15.464Z,45.89
2022-08-26T19:06:48.572Z,46.09
2022-08-26T19:09:19.073Z,46.07
2022-08-26T19:11:50.085Z,46.35
2022-08-26T19:14:19.085Z,46.40
2022-08-26T19:16:49.996Z,46.60
2022-08-26T19:19:23.904Z,46.66
2022-08-26T19:21:52.792Z,46.68
2022-08-26T19:24:23.229Z,47.02
2022-08-26T19:26:59.744Z,47.21
2022-08-26T19:29:34.932Z,47.24
2022-08-26T19:32:04.655Z,47.16
2022-08-26T19:34:34.188Z,47.48
2022-08-26T19:37:02.555Z,47.64
2022-08-26T19:39:30.859Z,47.93
2022-08-26T19:42:00.419Z,47.85
2022-08-26T19:44:47.279Z,47.97
2022-08-26T19:47:15.754Z,48.11
2022-08-26T19:49:44.823Z,48.33
2022-08-26T19:52:14.198Z,48.59
2022-08-26T19:54:42.511Z,48.75
2022-08-26T19:57:11.249Z,49.25
2022-08-26T19:59:40.377Z,49.51
2022-08-26T20:02:11.083Z,49.57
2022-08-26T20:04:41.723Z,49.79
2022-08-26T20:07:12.926Z,49.67
2022-08-26T20:09:43.601Z,49.79
2022-08-26T20:12:12.478Z,49.90
2022-08-26T20:14:40.911Z,49.94
2022-08-26T20:17:09.525Z,49.74
2022-08-26T20:19:56.461Z,50.03
2022-08-26T20:22:25.780Z,50.30
2022-08-26T20:24:54.042Z,50.48
2022-08-26T20:27:27.684Z,50.58
2022-08-26T20:30:10.109Z,50.62
2022-08-26T20:32:39.996Z,50.84
2022-08-26T20:35:12.404Z,51.05
2022-08-26T20:37:41.535Z,51.01
2022-08-26T20:40:13.352Z,51.09
2022-08-26T20:42:41.686Z,50.76
2022-08-26T20:45:10.777Z,50.70
2022-08-26T20:47:38.975Z,50.86
2022-08-26T20:50:08.680Z,51.12
2022-08-26T20:52:37.022Z,51.04
2022-08-26T20:55:06.001Z,51.47
2022-08-26T20:57:34.412Z,51.46
2022-08-26T21:00:03.722Z,51.51
2022-08-26T21:02:31.942Z,51.70
2022-08-26T21:05:05.302Z,52.10
2022-08-26T21:07:34.809Z,51.96
2022-08-26T21:10:05.503Z,51.82
2022-08-26T21:12:38.421Z,51.82
2022-08-26T21:15:16.129Z,51.73
2022-08-26T21:17:47.700Z,51.75
2022-08-26T21:20:30.493Z,51.67
2022-08-26T21:23:04.079Z,51.88
2022-08-26T21:25:47.419Z,51.79
2022-08-26T21:28:18.627Z,51.89
2022-08-26T21:30:47.900Z,52.09
2022-08-26T21:33:16.066Z,52.44
2022-08-26T21:35:54.416Z,52.75
2022-08-26T21:38:32.663Z,52.44
2022-08-26T21:41:09.650Z,52.51
2022-08-26T21:43:43.645Z,52.58
2022-08-26T21:46:21.979Z,52.46
2022-08-26T21:49:02.993Z,52.68
2022-08-26T21:51:35.105Z,52.75
2022-08-26T21:54:10.761Z,52.93
2022-08-26T21:56:46.164Z,52.98
2022-08-26T21:59:17.536Z,53.18
2022-08-26T22:01:46.352Z,53.11
2022-08-26T22:04:16.060Z,53.13
2022-08-26T22:06:48.028Z,53.19
2022-08-26T22:09:21.611Z,53.17
2022-08-26T22:11:50.932Z,53.08
2022-08-26T22:14:30.366Z,53.22
2022-08-26T22:17:00.420Z,52.98
2022-08-26T22:19:31.565Z,53.06
2022-08-26T22:22:03.635Z,52.99
2022-08-26T22:24:31.897Z,53.11
2022-08-26T22:27:00.193Z,53.16
2022-08-26T22:29:28.528Z,53.24
2022-08-26T22:31:57.342Z,53.30
2022-08-26T22:34:25.752Z,53.22
2022-08-26T22:36:54.075Z,53.27
2022-08-26T22:39:26.214Z,53.30
2022-08-26T22:41:55.267Z,53.38
2022-08-26T22:44:24.025Z,53.55
2022-08-26T22:46:57.065Z,53.70
2022-08-26T22:49:32.416Z,53.70
2022-08-26T22:52:14.562Z,53.95
2022-08-26T22:55:04.848Z,53.95
2022-08-26T22:57:40.190Z,54.35
2022-08-26T23:00:16.474Z,54.38
2022-08-26T23:02:54.204Z,54.91
2022-08-26T23:05:44.658Z,55.10
2022-08-26T23:08:22.960Z,55.18
2022-08-26T23:11:05.137Z,55.43
2022-08-26T23:13:40.537Z,55.44
2022-08-26T23:16:12.102Z,55.55
2022-08-26T23:18:43.767Z,55.57
2022-08-26T23:21:20.465Z,55.60
2022-08-26T23:23:58.093Z,55.62
2022-08-26T23:26:45.674Z,55.82
2022-08-26T23:29:26.043Z,56.12
2022-08-26T23:31:59.081Z,56.49
2022-08-26T23:34:50.092Z,56.46
2022-08-26T23:37:55.629Z,56.64
2022-08-26T23:40:32.739Z,56.90
2022-08-26T23:43:06.804Z,56.98
2022-08-26T23:45:35.951Z,57.53
2022-08-26T23:48:04.766Z,57.46
2022-08-26T23:50:51.478Z,57.73
2022-08-26T23:53:22.459Z,57.56
2022-08-26T23:55:53.146Z,57.76
2022-08-26T23:58:22.179Z,57.79
